This is the latest recevied weather packets stored in our database for station/object IT9IJI-15. If no packets are shown the sender has not sent any weather packets the latest 10 day(s).
| Time | Temp. | Humidity | Pressure | Rain* | Wind** | Luminosity | Snow |
|---|---|---|---|---|---|---|---|
| 1777551867 | 31.11° C | 35% | 891.9 hPa | - | - | - | - |
| 1777550967 | 31.11° C | 35% | 891.9 hPa | - | - | - | - |
| 1777550067 | 31.11° C | 35% | 891.8 hPa | - | - | - | - |
| 1777549167 | 31.11° C | 35% | 891.6 hPa | - | - | - | - |
| 1777548267 | 31.11° C | 35% | 891.7 hPa | - | - | - | - |
| 1777547370 | 23.89° C | 35% | 884.5 hPa | - | - | - | - |
| 1777546444 | 31.11° C | 36% | 891.8 hPa | - | - | - | - |
| 1777545543 | 31.11° C | 36% | 892 hPa | - | - | - | - |
| 1777544643 | 31.11° C | 36% | 892 hPa | - | - | - | - |
| 1777543743 | 30.56° C | 36% | 892.1 hPa | - | - | - | - |
| 1777542843 | 30.56° C | 36% | 892.2 hPa | - | - | - | - |
| 1777541044 | 30.56° C | 36% | 897.1 hPa | - | - | - | - |
| 1777540143 | 29.44° C | 41% | 892.3 hPa | - | - | - | - |
| 1777539243 | 18.33° C | 63% | 892.5 hPa | - | - | - | - |
| 1777537421 | 30.56° C | 36% | 892.4 hPa | - | - | - | - |
| 1777535621 | 30.56° C | 37% | 892.2 hPa | - | - | - | - |
| 1777534721 | 31.11° C | 37% | 892.1 hPa | - | - | - | - |
| 1777533820 | 30.56° C | 38% | 892.1 hPa | - | - | - | - |
| 1777532920 | 30° C | 38% | 892.1 hPa | - | - | - | - |
| 1777532145 | 30.56° C | 37% | 895.9 hPa | - | - | - | - |
| 1777531245 | 29.44° C | 39% | 891.9 hPa | - | - | - | - |
| 1777530689 | 28.89° C | 40% | 891.9 hPa | - | - | - | - |
| 1777530408 | 28.33° C | 42% | 891.7 hPa | - | - | - | - |
| 1777529980 | 26.11° C | 48% | 891.6 hPa | - | - | - | - |
| 1777529891 | 25.56° C | 48% | 891.5 hPa | - | - | - | - |
* Rain since midnight (hover to see other rain measurements)
** Current wind speed in m/s (hover to see current wind gust speed)